createdAt,value
2023-04-18T00:01:28.839Z,78.47
2023-04-18T00:03:55.949Z,76.16
2023-04-18T00:06:24.007Z,79.09
2023-04-18T00:08:50.981Z,78.77
2023-04-18T00:11:17.650Z,79.13
2023-04-18T00:13:44.324Z,78.62
2023-04-18T00:16:13.281Z,78.40
2023-04-18T00:18:40.072Z,78.96
2023-04-18T00:21:06.873Z,78.61
2023-04-18T00:23:35.173Z,78.10
2023-04-18T00:26:01.965Z,78.36
2023-04-18T00:28:28.523Z,78.50
2023-04-18T00:30:55.221Z,78.72
2023-04-18T00:33:21.864Z,78.56
2023-04-18T00:35:48.435Z,78.79
2023-04-18T00:38:14.981Z,78.20
2023-04-18T00:40:43.203Z,78.14
2023-04-18T00:43:09.786Z,78.27
2023-04-18T00:45:37.039Z,78.31
2023-04-18T00:48:03.941Z,77.87
2023-04-18T00:50:31.282Z,77.81
2023-04-18T00:52:58.566Z,78.20
2023-04-18T00:55:25.192Z,77.90
2023-04-18T00:57:53.494Z,78.60
2023-04-18T01:00:22.702Z,77.89
2023-04-18T01:02:52.977Z,77.88
2023-04-18T01:05:21.337Z,75.94
2023-04-18T01:07:48.046Z,78.79
2023-04-18T01:10:14.621Z,82.31
2023-04-18T01:12:41.415Z,79.77
2023-04-18T01:15:09.926Z,78.68
2023-04-18T01:17:36.532Z,78.38
2023-04-18T01:20:06.193Z,78.47
2023-04-18T01:22:33.732Z,78.79
2023-04-18T01:25:06.924Z,78.22
2023-04-18T01:27:33.460Z,78.52
2023-04-18T01:30:00.037Z,77.86
2023-04-18T01:32:26.658Z,78.25
2023-04-18T01:34:53.273Z,78.26
2023-04-18T01:37:19.864Z,77.90
2023-04-18T01:39:47.732Z,78.06
2023-04-18T01:42:15.724Z,78.18
2023-04-18T01:44:43.128Z,78.03
2023-04-18T01:47:09.665Z,78.60
2023-04-18T01:49:36.182Z,78.56
2023-04-18T01:52:02.713Z,78.12
2023-04-18T01:54:29.530Z,77.26
2023-04-18T01:56:56.068Z,76.49
2023-04-18T01:59:24.061Z,77.48
2023-04-18T02:01:50.734Z,78.65
2023-04-18T02:04:17.574Z,78.16
2023-04-18T02:06:44.296Z,78.33
2023-04-18T02:09:10.862Z,78.50
2023-04-18T02:11:37.424Z,78.71
2023-04-18T02:14:03.946Z,77.79
2023-04-18T02:16:31.921Z,78.06
2023-04-18T02:18:58.577Z,77.76
2023-04-18T02:21:25.253Z,78.03
2023-04-18T02:23:52.070Z,77.91
2023-04-18T02:26:18.700Z,77.95
2023-04-18T02:28:45.254Z,77.70
2023-04-18T02:31:14.847Z,77.45
2023-04-18T02:33:43.343Z,77.63
2023-04-18T02:36:10.009Z,77.66
2023-04-18T02:38:36.610Z,78.15
2023-04-18T02:41:03.592Z,78.07
2023-04-18T02:43:30.203Z,78.61
2023-04-18T02:45:56.910Z,78.44
2023-04-18T02:48:23.970Z,77.40
2023-04-18T02:50:51.873Z,78.01
2023-04-18T02:53:18.457Z,77.44
2023-04-18T02:55:45.011Z,78.52
2023-04-18T02:58:11.677Z,77.89
2023-04-18T03:00:38.228Z,77.47
2023-04-18T03:03:05.536Z,77.96
2023-04-18T03:05:32.369Z,77.59
2023-04-18T03:08:00.308Z,77.69
2023-04-18T03:10:26.859Z,77.51
2023-04-18T03:12:53.456Z,78.05
2023-04-18T03:15:20.316Z,78.10
2023-04-18T03:17:46.933Z,77.50
2023-04-18T03:20:13.546Z,77.85
2023-04-18T03:22:40.253Z,77.83
2023-04-18T03:25:09.162Z,77.72
2023-04-18T03:27:35.794Z,77.90
2023-04-18T03:30:02.626Z,78.50
2023-04-18T03:32:29.239Z,78.28
2023-04-18T03:34:55.958Z,77.76
2023-04-18T03:37:22.508Z,78.39
2023-04-18T03:39:49.091Z,77.06
2023-04-18T03:42:17.038Z,78.31
2023-04-18T03:44:43.607Z,82.51
2023-04-18T03:47:10.252Z,79.85
2023-04-18T03:49:36.952Z,78.74
2023-04-18T03:52:03.669Z,78.38
2023-04-18T03:54:30.231Z,77.55
2023-04-18T03:56:59.279Z,77.27
2023-04-18T03:59:27.290Z,77.59
2023-04-18T04:01:53.917Z,77.42
2023-04-18T04:04:20.695Z,77.66
2023-04-18T04:06:47.634Z,77.77
2023-04-18T04:09:14.217Z,77.47
2023-04-18T04:11:40.850Z,77.79
2023-04-18T04:14:07.452Z,77.78
2023-04-18T04:16:35.657Z,77.88
2023-04-18T04:19:02.322Z,77.72
2023-04-18T04:21:30.626Z,77.82
2023-04-18T04:23:57.315Z,78.08
2023-04-18T04:26:24.012Z,77.95
2023-04-18T04:28:51.616Z,77.71
2023-04-18T04:31:18.688Z,77.69
2023-04-18T04:33:46.740Z,77.48
2023-04-18T04:36:16.682Z,76.96
2023-04-18T04:38:45.026Z,78.65
2023-04-18T04:41:11.756Z,77.61
2023-04-18T04:43:41.282Z,77.92
2023-04-18T04:46:08.874Z,76.87
2023-04-18T04:48:35.719Z,77.32
2023-04-18T04:51:04.009Z,77.37
2023-04-18T04:53:30.643Z,77.04
2023-04-18T04:55:57.524Z,77.70
2023-04-18T04:58:24.328Z,77.64
2023-04-18T05:00:52.600Z,77.37
2023-04-18T05:03:19.603Z,77.43
2023-04-18T05:05:46.553Z,77.57
2023-04-18T05:08:14.542Z,78.38
2023-04-18T05:10:41.550Z,77.67
2023-04-18T05:13:08.202Z,78.15
2023-04-18T05:15:34.817Z,78.11
2023-04-18T05:18:01.485Z,77.90
2023-04-18T05:20:28.250Z,77.72
2023-04-18T05:22:54.988Z,77.87
2023-04-18T05:25:22.986Z,82.08
2023-04-18T05:27:50.939Z,79.02
2023-04-18T05:30:17.682Z,77.79
2023-04-18T05:32:44.402Z,79.21
2023-04-18T05:35:11.071Z,82.54
2023-04-18T05:37:37.685Z,84.24
2023-04-18T05:40:05.316Z,80.41
2023-04-18T05:42:33.318Z,80.61
2023-04-18T05:45:00.001Z,81.56
2023-04-18T05:47:28.477Z,84.22
2023-04-18T05:49:55.328Z,86.41
2023-04-18T05:52:22.079Z,82.79
2023-04-18T05:54:48.689Z,82.03
2023-04-18T05:57:15.372Z,82.34
2023-04-18T05:59:43.775Z,81.99
2023-04-18T06:02:13.418Z,79.69
2023-04-18T06:04:44.032Z,79.17
2023-04-18T06:07:11.105Z,77.96
2023-04-18T06:09:37.687Z,79.83
2023-04-18T06:12:04.476Z,82.20
2023-04-18T06:14:31.400Z,84.54
2023-04-18T06:16:59.605Z,84.22
2023-04-18T06:19:26.287Z,83.36
2023-04-18T06:21:53.412Z,84.06
2023-04-18T06:24:21.134Z,84.64
2023-04-18T06:26:47.738Z,83.69
2023-04-18T06:29:14.393Z,84.72
2023-04-18T06:31:42.035Z,84.24
2023-04-18T06:34:10.224Z,84.34
2023-04-18T06:36:36.836Z,83.70
2023-04-18T06:39:03.827Z,83.24
2023-04-18T06:41:31.674Z,82.52
2023-04-18T06:46:27.884Z,81.52
2023-04-18T06:48:54.554Z,82.87
2023-04-18T06:51:22.486Z,80.07
2023-04-18T06:53:52.501Z,79.78
2023-04-18T06:56:19.426Z,78.85
2023-04-18T06:58:46.309Z,79.49
2023-04-18T07:01:12.902Z,79.98
2023-04-18T07:03:39.659Z,77.72
2023-04-18T07:06:08.765Z,80.85
2023-04-18T07:08:36.732Z,79.90
2023-04-18T07:11:03.334Z,79.34
2023-04-18T07:13:29.908Z,79.32
2023-04-18T07:15:56.818Z,78.78
2023-04-18T07:18:34.259Z,79.47
2023-04-18T07:21:03.866Z,80.79
2023-04-18T07:23:30.532Z,77.61
2023-04-18T07:26:01.519Z,79.38
2023-04-18T07:28:28.226Z,78.57
2023-04-18T07:30:55.380Z,76.92
2023-04-18T07:33:22.024Z,77.31
2023-04-18T07:35:49.917Z,76.53
2023-04-18T07:38:16.619Z,74.88
2023-04-18T07:40:44.866Z,79.36
2023-04-18T07:43:12.868Z,76.47
2023-04-18T07:45:39.548Z,78.76
2023-04-18T07:48:06.520Z,75.01
2023-04-18T07:50:33.139Z,73.58
2023-04-18T07:52:59.736Z,74.36
2023-04-18T07:55:26.428Z,73.45
2023-04-18T07:57:53.079Z,76.06
2023-04-18T08:00:21.483Z,75.36
2023-04-18T08:02:48.216Z,76.03
2023-04-18T08:05:15.050Z,78.01
2023-04-18T08:07:41.832Z,76.78
2023-04-18T08:10:09.173Z,72.68
2023-04-18T08:12:36.772Z,73.43
2023-04-18T08:15:03.805Z,76.52
2023-04-18T08:17:33.045Z,76.04
2023-04-18T08:20:00.834Z,77.68
2023-04-18T08:22:27.448Z,78.31
2023-04-18T08:25:04.332Z,78.42
2023-04-18T08:27:32.337Z,74.22
2023-04-18T08:29:59.008Z,74.06
2023-04-18T08:32:25.731Z,75.88
2023-04-18T08:34:53.750Z,74.11
2023-04-18T08:37:20.388Z,73.89
2023-04-18T08:39:47.057Z,75.40
2023-04-18T08:42:16.436Z,75.76
2023-04-18T08:44:43.249Z,71.82
2023-04-18T08:47:09.982Z,70.13
2023-04-18T08:49:36.639Z,72.34
2023-04-18T08:52:11.129Z,74.30
2023-04-18T08:54:41.969Z,74.72
2023-04-18T08:57:10.394Z,72.97
2023-04-18T08:59:37.039Z,73.02
2023-04-18T09:02:05.537Z,72.63
2023-04-18T09:04:36.659Z,70.55
2023-04-18T09:07:06.832Z,70.14
2023-04-18T09:09:47.001Z,71.32
2023-04-18T09:12:15.203Z,73.30
2023-04-18T09:14:48.544Z,72.02
2023-04-18T09:17:21.840Z,72.02
2023-04-18T09:19:50.062Z,72.14
2023-04-18T09:22:18.137Z,73.52
2023-04-18T09:24:53.584Z,70.63
2023-04-18T09:27:23.253Z,73.14
2023-04-18T09:29:51.840Z,70.75
2023-04-18T09:32:26.832Z,72.97
2023-04-18T09:34:58.178Z,70.30
2023-04-18T09:37:26.815Z,69.34
2023-04-18T09:39:54.179Z,68.64
2023-04-18T09:42:21.648Z,69.51
2023-04-18T09:45:06.094Z,69.25
2023-04-18T09:47:35.142Z,71.35
2023-04-18T09:50:03.569Z,69.58
2023-04-18T09:52:34.832Z,70.14
2023-04-18T09:55:03.561Z,69.25
2023-04-18T09:57:32.366Z,70.26
2023-04-18T10:00:10.690Z,69.17
2023-04-18T10:02:49.434Z,71.18
2023-04-18T10:05:19.533Z,71.50
2023-04-18T10:07:50.036Z,71.88
2023-04-18T10:10:17.452Z,70.52
2023-04-18T10:12:44.800Z,69.31
2023-04-18T10:15:11.834Z,70.30
2023-04-18T10:17:56.083Z,70.01
2023-04-18T10:20:31.049Z,70.32
2023-04-18T10:23:00.013Z,70.76
2023-04-18T10:25:49.377Z,70.64
2023-04-18T10:28:16.466Z,70.79
2023-04-18T10:30:56.650Z,72.53
2023-04-18T10:33:32.141Z,74.08
2023-04-18T10:36:01.347Z,73.00
2023-04-18T10:38:29.667Z,73.63
2023-04-18T10:41:15.148Z,73.83
2023-04-18T10:44:18.339Z,72.89
2023-04-18T10:47:31.062Z,73.16
2023-04-18T10:50:01.474Z,73.84
2023-04-18T10:52:28.538Z,72.68
2023-04-18T10:55:07.446Z,71.86
2023-04-18T10:57:42.498Z,72.84
2023-04-18T11:00:14.650Z,72.03
2023-04-18T11:02:49.347Z,71.63
2023-04-18T11:05:20.652Z,71.69
2023-04-18T11:07:48.983Z,70.80
2023-04-18T11:10:21.873Z,71.93
2023-04-18T11:12:49.769Z,68.37
2023-04-18T11:15:21.193Z,68.36
2023-04-18T11:17:57.517Z,67.14
2023-04-18T11:20:24.414Z,66.36
2023-04-18T11:22:54.400Z,65.99
2023-04-18T11:25:25.293Z,66.39
2023-04-18T11:27:52.019Z,68.54
2023-04-18T11:30:19.021Z,67.95
2023-04-18T11:32:46.866Z,69.34
2023-04-18T11:35:15.399Z,67.43
2023-04-18T11:37:45.350Z,66.37
2023-04-18T11:40:12.977Z,69.15
2023-04-18T11:42:41.567Z,65.92
2023-04-18T11:45:12.629Z,67.57
2023-04-18T11:47:41.795Z,67.20
2023-04-18T11:50:11.304Z,68.16
2023-04-18T11:52:39.676Z,68.65
2023-04-18T11:55:14.076Z,69.51
2023-04-18T11:57:42.174Z,68.56
2023-04-18T12:00:12.165Z,69.81
2023-04-18T12:02:41.125Z,69.04
2023-04-18T12:05:08.580Z,68.04
2023-04-18T12:07:37.736Z,68.93
2023-04-18T12:10:06.148Z,69.20
2023-04-18T12:12:33.334Z,69.71
2023-04-18T12:15:03.338Z,69.87
2023-04-18T12:17:31.069Z,68.15
2023-04-18T12:20:02.041Z,69.60
2023-04-18T12:22:43.178Z,68.45
2023-04-18T12:25:27.090Z,68.35
2023-04-18T12:27:57.866Z,69.19
2023-04-18T12:30:27.203Z,69.29
2023-04-18T12:32:54.865Z,66.67
2023-04-18T12:35:22.343Z,68.18
2023-04-18T12:37:50.073Z,66.81
2023-04-18T12:40:18.994Z,67.53
2023-04-18T12:42:46.551Z,66.85
2023-04-18T12:45:14.013Z,67.34
2023-04-18T12:47:43.912Z,68.68
2023-04-18T12:50:12.175Z,68.46
2023-04-18T12:52:40.267Z,68.41
2023-04-18T12:55:08.194Z,68.22
2023-04-18T12:57:35.033Z,67.46
2023-04-18T13:00:02.151Z,67.21
2023-04-18T13:02:29.254Z,67.62
2023-04-18T13:04:58.384Z,67.56
2023-04-18T13:07:25.216Z,67.51
2023-04-18T13:09:51.860Z,68.58
2023-04-18T13:12:18.986Z,67.37
2023-04-18T13:14:46.112Z,68.11
2023-04-18T13:17:13.124Z,68.45
2023-04-18T13:19:39.732Z,67.59
2023-04-18T13:22:07.938Z,68.95
2023-04-18T13:24:34.599Z,68.36
2023-04-18T13:27:02.327Z,68.11
2023-04-18T13:29:28.955Z,68.12
2023-04-18T13:31:55.677Z,68.23
2023-04-18T13:34:22.336Z,68.78
2023-04-18T13:36:48.919Z,69.11
2023-04-18T13:39:17.373Z,70.83
2023-04-18T13:41:44.060Z,69.14
2023-04-18T13:44:11.043Z,68.97
2023-04-18T13:46:38.062Z,69.96
2023-04-18T13:49:04.689Z,68.45
2023-04-18T13:51:31.663Z,67.15
2023-04-18T13:54:00.478Z,68.74
2023-04-18T13:56:28.536Z,66.75
2023-04-18T13:58:55.902Z,67.30
2023-04-18T14:01:22.559Z,68.33
2023-04-18T14:03:49.377Z,68.29
2023-04-18T14:06:16.033Z,69.54
2023-04-18T14:08:42.628Z,69.80
2023-04-18T14:11:09.217Z,70.15
2023-04-18T14:13:37.144Z,67.12
2023-04-18T14:16:04.459Z,69.23
2023-04-18T14:18:31.067Z,69.46
2023-04-18T14:20:57.635Z,69.52
2023-04-18T14:23:25.800Z,68.76
2023-04-18T14:25:52.349Z,69.82
2023-04-18T14:28:21.547Z,68.43
2023-04-18T14:30:49.584Z,68.68
2023-04-18T14:33:16.274Z,67.60
2023-04-18T14:35:43.782Z,66.83
2023-04-18T14:38:11.178Z,68.48
2023-04-18T14:40:38.011Z,68.23
2023-04-18T14:43:04.571Z,68.48
2023-04-18T14:45:32.718Z,69.02
2023-04-18T14:48:00.748Z,68.86
2023-04-18T14:50:27.603Z,68.00
2023-04-18T14:52:54.307Z,68.57
2023-04-18T14:55:20.883Z,69.04
2023-04-18T14:57:47.504Z,70.32
2023-04-18T15:00:15.456Z,70.94
2023-04-18T15:02:42.233Z,70.62
2023-04-18T15:05:11.434Z,70.68
2023-04-18T15:07:38.220Z,69.81
2023-04-18T15:10:05.824Z,69.34
2023-04-18T15:12:32.799Z,67.35
2023-04-18T15:14:59.902Z,67.65
2023-04-18T15:17:26.687Z,68.48
2023-04-18T15:19:53.411Z,68.16
2023-04-18T15:22:21.304Z,67.02
2023-04-18T15:24:47.898Z,66.71
2023-04-18T15:27:14.442Z,66.02
2023-04-18T15:29:41.159Z,67.16
2023-04-18T15:32:07.965Z,68.50
2023-04-18T15:34:34.668Z,68.08
2023-04-18T15:37:02.277Z,69.04
2023-04-18T15:39:30.214Z,67.04
2023-04-18T15:41:56.927Z,68.98
2023-04-18T15:44:23.618Z,68.11
2023-04-18T15:46:50.911Z,68.54
2023-04-18T15:49:17.671Z,68.79
2023-04-18T15:51:44.240Z,70.87
2023-04-18T15:54:11.005Z,71.33
2023-04-18T15:56:39.013Z,72.45
2023-04-18T15:59:06.121Z,71.86
2023-04-18T16:01:33.213Z,72.39
2023-04-18T16:03:59.956Z,72.32
2023-04-18T16:06:26.633Z,72.34
2023-04-18T16:08:53.248Z,73.43
2023-04-18T16:11:21.603Z,73.09
2023-04-18T16:13:49.615Z,72.86
2023-04-18T16:16:16.736Z,73.04
2023-04-18T16:18:43.423Z,73.86
2023-04-18T16:21:13.151Z,73.39
2023-04-18T16:23:39.564Z,73.18
2023-04-18T16:26:06.506Z,73.53
2023-04-18T16:28:37.577Z,72.78
2023-04-18T16:31:06.194Z,73.73
2023-04-18T16:33:33.092Z,72.72
2023-04-18T16:36:02.522Z,73.62
2023-04-18T16:38:29.349Z,73.19
2023-04-18T16:40:57.379Z,74.42
2023-04-18T16:43:26.675Z,73.62
2023-04-18T16:45:56.188Z,74.13
2023-04-18T16:48:24.418Z,75.04
2023-04-18T16:50:51.021Z,73.67
2023-04-18T16:53:17.686Z,73.58
2023-04-18T16:55:44.333Z,73.57
2023-04-18T16:58:11.192Z,74.22
2023-04-18T17:00:38.667Z,74.52
2023-04-18T17:03:07.272Z,75.43
2023-04-18T17:05:35.493Z,74.63
2023-04-18T17:08:03.576Z,74.45
2023-04-18T17:10:30.606Z,74.71
2023-04-18T17:12:57.764Z,73.85
2023-04-18T17:15:26.073Z,73.40
2023-04-18T17:17:52.897Z,75.22
2023-04-18T17:20:20.235Z,73.85
2023-04-18T17:22:48.172Z,74.27
2023-04-18T17:25:15.692Z,73.64
2023-04-18T17:27:42.914Z,73.71
2023-04-18T17:30:10.629Z,73.16
2023-04-18T17:32:42.813Z,74.87
2023-04-18T17:35:10.308Z,74.66
2023-04-18T17:37:37.253Z,75.14
2023-04-18T17:40:09.560Z,73.17
2023-04-18T17:42:36.793Z,73.90
2023-04-18T17:45:03.689Z,73.15
2023-04-18T17:47:31.630Z,75.27
2023-04-18T17:49:58.234Z,75.03
2023-04-18T17:52:24.955Z,75.92
2023-04-18T17:54:51.545Z,75.54
2023-04-18T17:57:19.936Z,75.99
2023-04-18T17:59:46.550Z,74.05
2023-04-18T18:02:13.201Z,73.55
2023-04-18T18:04:40.056Z,74.37
2023-04-18T18:07:06.761Z,75.59
2023-04-18T18:09:33.390Z,74.86
2023-04-18T18:12:00.070Z,73.74
2023-04-18T18:14:28.121Z,74.30
2023-04-18T18:16:54.818Z,75.52
2023-04-18T18:19:21.487Z,74.72
2023-04-18T18:21:48.088Z,76.76
2023-04-18T18:24:14.738Z,76.67
2023-04-18T18:26:41.464Z,77.25
2023-04-18T18:29:11.518Z,76.84
2023-04-18T18:31:39.566Z,77.49
2023-04-18T18:34:06.273Z,76.15
2023-04-18T18:36:32.975Z,77.14
2023-04-18T18:38:59.579Z,77.13
2023-04-18T18:41:26.283Z,75.55
2023-04-18T18:43:52.983Z,75.97
2023-04-18T18:46:20.513Z,76.38
2023-04-18T18:48:49.689Z,75.01
2023-04-18T18:51:17.918Z,76.79
2023-04-18T18:53:44.882Z,76.15
2023-04-18T18:56:11.475Z,76.38
2023-04-18T18:58:39.089Z,74.71
2023-04-18T19:01:06.637Z,77.16
2023-04-18T19:03:34.624Z,77.00
2023-04-18T19:06:04.238Z,76.46
2023-04-18T19:08:31.056Z,76.42
2023-04-18T19:10:57.644Z,75.63
2023-04-18T19:13:24.347Z,74.54
2023-04-18T19:15:51.534Z,75.41
2023-04-18T19:18:19.934Z,76.05
2023-04-18T19:20:46.811Z,76.92
2023-04-18T19:23:14.697Z,76.79
2023-04-18T19:25:41.499Z,76.81
2023-04-18T19:28:08.197Z,76.30
2023-04-18T19:30:34.791Z,76.25
2023-04-18T19:33:01.418Z,75.79
2023-04-18T19:35:28.228Z,76.17
2023-04-18T19:38:01.379Z,76.47
2023-04-18T19:40:29.989Z,75.11
2023-04-18T19:42:57.132Z,75.55
2023-04-18T19:45:23.759Z,76.16
2023-04-18T19:47:50.480Z,75.09
2023-04-18T19:50:17.225Z,73.52
2023-04-18T19:52:43.821Z,76.06
2023-04-18T19:55:10.554Z,75.66
2023-04-18T19:57:39.552Z,76.02
2023-04-18T20:00:09.114Z,73.03
2023-04-18T20:02:35.911Z,74.63
2023-04-18T20:05:02.965Z,74.30
2023-04-18T20:07:30.120Z,74.19
2023-04-18T20:09:56.812Z,76.66
2023-04-18T20:12:23.692Z,75.49
2023-04-18T20:14:52.158Z,77.34
2023-04-18T20:17:18.844Z,76.80
2023-04-18T20:19:49.508Z,74.35
2023-04-18T20:22:16.231Z,75.37
2023-04-18T20:24:44.908Z,76.37
2023-04-18T20:27:12.119Z,75.71
2023-04-18T20:29:38.823Z,76.34
2023-04-18T20:32:07.058Z,75.75
2023-04-18T20:34:33.656Z,76.17
2023-04-18T20:37:00.309Z,75.33
2023-04-18T20:39:28.008Z,75.44
2023-04-18T20:41:57.541Z,76.25
2023-04-18T20:44:24.908Z,76.20
2023-04-18T20:46:54.859Z,75.19
2023-04-18T20:49:22.824Z,76.32
2023-04-18T20:51:49.432Z,75.61
2023-04-18T20:54:16.391Z,75.91
2023-04-18T20:56:43.208Z,76.19
2023-04-18T20:59:09.823Z,76.25
2023-04-18T21:01:37.285Z,75.39
2023-04-18T21:04:04.200Z,76.03
2023-04-18T21:06:32.878Z,76.42
2023-04-18T21:08:59.460Z,74.93
2023-04-18T21:11:26.126Z,75.66
2023-04-18T21:13:52.679Z,75.42
2023-04-18T21:16:19.467Z,75.98
2023-04-18T21:18:46.121Z,76.00
2023-04-18T21:21:12.732Z,75.37
2023-04-18T21:23:44.246Z,75.57
2023-04-18T21:26:12.368Z,76.38
2023-04-18T21:28:53.198Z,75.61
2023-04-18T21:31:19.865Z,75.94
2023-04-18T21:33:46.463Z,75.17
2023-04-18T21:36:13.049Z,75.35
2023-04-18T21:38:39.616Z,75.97
2023-04-18T21:41:07.843Z,76.13
2023-04-18T21:43:34.478Z,75.77
2023-04-18T21:46:01.131Z,75.70
2023-04-18T21:48:27.802Z,75.31
2023-04-18T21:50:54.898Z,75.59
2023-04-18T21:53:21.649Z,75.58
2023-04-18T21:55:48.198Z,75.64
2023-04-18T21:58:16.131Z,75.66
2023-04-18T22:00:42.724Z,75.24
2023-04-18T22:03:09.435Z,75.61
2023-04-18T22:05:36.915Z,75.96
2023-04-18T22:08:03.829Z,75.37
2023-04-18T22:10:31.004Z,75.90
2023-04-18T22:12:58.393Z,76.08
2023-04-18T22:15:27.105Z,75.55
2023-04-18T22:17:54.295Z,75.06
2023-04-18T22:20:21.648Z,75.28
2023-04-18T22:22:48.230Z,76.08
2023-04-18T22:25:14.950Z,75.01
2023-04-18T22:27:42.976Z,75.58
2023-04-18T22:30:10.514Z,75.62
2023-04-18T22:32:38.949Z,75.52
2023-04-18T22:35:06.579Z,75.39
2023-04-18T22:37:33.215Z,75.58
2023-04-18T22:39:59.779Z,75.87
2023-04-18T22:42:26.331Z,75.83
2023-04-18T22:44:52.890Z,75.51
2023-04-18T22:47:19.477Z,75.71
2023-04-18T22:49:47.465Z,75.31
2023-04-18T22:52:14.239Z,75.19
2023-04-18T22:54:41.146Z,75.89
2023-04-18T22:57:07.875Z,75.52
2023-04-18T22:59:34.494Z,75.59
2023-04-18T23:02:01.446Z,75.60
2023-04-18T23:04:31.170Z,75.60
2023-04-18T23:06:59.002Z,75.40
2023-04-18T23:09:27.025Z,76.22
2023-04-18T23:11:53.779Z,76.01
2023-04-18T23:14:21.460Z,75.40
2023-04-18T23:16:48.086Z,76.05
2023-04-18T23:19:14.728Z,75.78
2023-04-18T23:21:41.525Z,75.44
2023-04-18T23:24:10.683Z,75.78
2023-04-18T23:26:37.490Z,75.48
2023-04-18T23:29:04.132Z,75.21
2023-04-18T23:31:32.874Z,76.10
2023-04-18T23:33:59.538Z,75.23
2023-04-18T23:36:27.390Z,75.05
2023-04-18T23:38:54.067Z,75.73
2023-04-18T23:41:22.043Z,75.18
2023-04-18T23:43:48.657Z,75.95
2023-04-18T23:46:15.557Z,75.37
2023-04-18T23:48:42.296Z,75.55
2023-04-18T23:51:08.871Z,75.60
2023-04-18T23:53:35.450Z,75.29
2023-04-18T23:56:02.029Z,75.36
2023-04-18T23:58:31.673Z,74.66
